Time;durP1;ratioP1;P1;durP2;ratioP2;P2;SDS_P1;SDS_P2;PMS_P1;PMS_P2;Temp;Humidity;BMP_temperature;BMP_pressure;BME280_temperature;BME280_humidity;BME280_pressure;Samples;Min_cycle;Max_cycle;Signal;HPM_P1;HPM_P2
2022/02/04 00:04:09;;;;;;;14.47;10.93;;;7.00;99.90;;;;;;5058238;28;20847;-54
2022/02/04 00:06:51;;;;;;;15.10;10.30;;;7.00;99.90;;;;;;5052163;28;20539;-59
2022/02/04 00:09:22;;;;;;;12.60;8.90;;;7.10;99.90;;;;;;5051585;28;20513;-57
2022/02/04 00:23:18;;;;;;;11.03;8.00;;;7.00;99.90;;;;;;5013675;28;20481;-56
2022/02/04 00:28:16;;;;;;;10.03;7.87;;;6.90;99.90;;;;;;5058888;28;20182;-58
2022/02/04 00:30:47;;;;;;;10.67;9.10;;;6.90;99.90;;;;;;5051683;28;20194;-51
2022/02/04 00:33:14;;;;;;;10.70;8.70;;;6.90;99.90;;;;;;5054415;28;20412;-59
2022/02/04 00:38:21;;;;;;;12.73;9.33;;;6.90;99.90;;;;;;5065511;28;20404;-57
2022/02/04 00:40:51;;;;;;;11.70;9.10;;;6.90;99.90;;;;;;5054737;28;20493;-56
2022/02/04 00:43:18;;;;;;;9.47;7.80;;;6.90;99.90;;;;;;5060658;28;20444;-57
2022/02/04 00:48:28;;;;;;;21.37;18.50;;;7.00;99.90;;;;;;5062198;28;20418;-56
2022/02/04 00:56:25;;;;;;;13.63;10.80;;;6.90;99.90;;;;;;5036986;28;20632;-57
2022/02/04 01:26:05;;;;;;;12.60;9.50;;;6.90;99.90;;;;;;5050197;28;20439;-53
2022/02/04 01:28:33;;;;;;;11.00;9.17;;;6.90;99.90;;;;;;5055337;28;20467;-56
2022/02/04 01:30:59;;;;;;;14.17;10.50;;;6.90;99.90;;;;;;5056960;28;21311;-58
2022/02/04 01:33:26;;;;;;;13.30;9.90;;;6.90;99.90;;;;;;5056518;28;20927;-57
2022/02/04 01:35:53;;;;;;;14.13;10.40;;;6.90;99.90;;;;;;5058627;28;20424;-52
2022/02/04 01:38:19;;;;;;;14.97;10.60;;;6.90;99.90;;;;;;5054609;28;20421;-56
2022/02/04 01:40:44;;;;;;;15.33;10.70;;;6.90;99.90;;;;;;5060309;28;20451;-54
2022/02/04 01:43:10;;;;;;;14.40;10.60;;;6.80;99.90;;;;;;5050782;28;20178;-54
2022/02/04 01:45:36;;;;;;;14.30;10.20;;;6.80;99.90;;;;;;5056759;28;20186;-60
2022/02/04 01:48:01;;;;;;;15.83;11.80;;;6.80;99.90;;;;;;5048646;28;20226;-52
2022/02/04 01:50:29;;;;;;;13.20;10.07;;;6.80;99.90;;;;;;5051066;28;20672;-56
2022/02/04 01:53:00;;;;;;;14.70;10.90;;;6.80;99.90;;;;;;5054504;28;20696;-54
2022/02/04 01:55:26;;;;;;;14.27;10.70;;;6.80;99.90;;;;;;5055052;28;20534;-53
2022/02/04 01:57:52;;;;;;;16.03;11.20;;;6.80;99.90;;;;;;5064829;28;20904;-58
2022/02/04 02:00:18;;;;;;;13.50;10.50;;;6.70;99.90;;;;;;5046574;28;20489;-54
2022/02/04 02:02:44;;;;;;;12.50;10.43;;;6.70;99.90;;;;;;5050656;28;20197;-54
2022/02/04 02:05:10;;;;;;;14.77;10.90;;;6.70;99.90;;;;;;5053570;28;20938;-55
2022/02/04 02:07:44;;;;;;;15.20;10.80;;;6.70;99.90;;;;;;5057672;28;20652;-57
2022/02/04 02:10:13;;;;;;;15.40;11.50;;;6.60;99.90;;;;;;5057659;28;20455;-62
2022/02/04 02:13:11;;;;;;;16.27;12.20;;;6.60;99.90;;;;;;5059513;28;20421;-56
2022/02/04 02:44:42;;;;;;;18.13;13.00;;;6.50;99.90;;;;;;5049233;28;20425;-59
2022/02/04 02:52:18;;;;;;;18.00;11.87;;;6.50;99.90;;;;;;5056403;28;20212;-59
2022/02/04 02:57:51;;;;;;;16.27;12.07;;;6.50;99.90;;;;;;5038224;28;20918;-58
2022/02/04 03:01:03;;;;;;;18.33;12.30;;;6.50;99.90;;;;;;5063811;28;20427;-59
2022/02/04 03:03:06;;;;;;;17.97;12.30;;;6.50;99.90;;;;;;5041229;28;20527;-59
2022/02/04 03:05:32;;;;;;;18.90;13.00;;;6.50;99.90;;;;;;5044285;28;20425;-59
2022/02/04 03:07:57;;;;;;;17.40;12.20;;;6.50;99.90;;;;;;5052097;28;20578;-59
2022/02/04 03:10:23;;;;;;;18.50;12.27;;;6.50;99.90;;;;;;5056679;28;20209;-57
2022/02/04 03:12:49;;;;;;;17.70;12.40;;;6.50;99.90;;;;;;5059015;28;20190;-58
2022/02/04 03:15:15;;;;;;;17.10;12.05;;;6.50;99.90;;;;;;5048925;28;20312;-59
2022/02/04 03:17:42;;;;;;;17.33;11.73;;;6.50;99.90;;;;;;5049424;28;20261;-58
2022/02/04 03:20:11;;;;;;;18.53;11.90;;;6.60;99.90;;;;;;5049770;28;21061;-60
2022/02/04 03:22:38;;;;;;;15.40;11.20;;;6.60;99.90;;;;;;5046526;28;20441;-60
2022/02/04 03:25:07;;;;;;;15.68;11.00;;;6.60;99.90;;;;;;5058401;28;20432;-61
2022/02/04 03:27:46;;;;;;;13.93;9.83;;;6.60;99.90;;;;;;5056741;28;20182;-53
2022/02/04 03:32:42;;;;;;;13.33;9.43;;;6.70;99.90;;;;;;5065032;28;20178;-59
2022/02/04 03:35:08;;;;;;;16.90;10.83;;;6.70;99.90;;;;;;5049865;28;20440;-59
2022/02/04 03:37:33;;;;;;;14.07;10.10;;;6.80;99.90;;;;;;5049071;28;20466;-58
2022/02/04 03:39:59;;;;;;;14.40;9.50;;;6.70;99.90;;;;;;5064533;28;20185;-56
2022/02/04 03:42:24;;;;;;;14.97;9.93;;;6.70;99.90;;;;;;5067442;28;20189;-59
2022/02/04 03:44:50;;;;;;;17.57;11.80;;;6.70;99.90;;;;;;5049207;28;20890;-58
2022/02/04 03:47:15;;;;;;;14.20;9.57;;;6.70;99.90;;;;;;5049788;28;20746;-58
2022/02/04 03:49:41;;;;;;;14.03;9.40;;;6.70;99.90;;;;;;5061468;28;20571;-58
2022/02/04 03:52:06;;;;;;;13.90;9.47;;;6.70;99.90;;;;;;5063399;28;20182;-59
2022/02/04 03:54:32;;;;;;;13.50;10.20;;;6.70;99.90;;;;;;5056936;28;20186;-59
2022/02/04 03:56:57;;;;;;;13.33;10.20;;;6.80;99.90;;;;;;5049716;28;20205;-59
2022/02/04 03:59:26;;;;;;;13.90;9.13;;;6.70;99.90;;;;;;5063197;28;20197;-59
2022/02/04 04:01:52;;;;;;;13.83;9.63;;;6.80;99.90;;;;;;5066172;28;20189;-60
2022/02/04 04:04:18;;;;;;;14.03;8.90;;;6.80;99.90;;;;;;5060710;28;21019;-61
2022/02/04 04:06:43;;;;;;;14.30;9.60;;;6.80;99.90;;;;;;5047760;28;20444;-58
2022/02/04 04:09:09;;;;;;;14.03;9.30;;;6.80;99.90;;;;;;5063788;28;20563;-60
2022/02/04 04:11:34;;;;;;;12.87;8.53;;;6.80;99.90;;;;;;5061566;28;20212;-59
2022/02/04 04:14:00;;;;;;;12.37;8.97;;;6.80;99.90;;;;;;5062879;28;20185;-59
2022/02/04 04:16:26;;;;;;;13.50;8.80;;;6.80;99.90;;;;;;5048748;28;20212;-59
2022/02/04 04:18:51;;;;;;;12.60;8.73;;;6.80;99.90;;;;;;5048127;28;20235;-59
2022/02/04 04:21:17;;;;;;;11.60;8.53;;;6.80;99.90;;;;;;5048880;28;20623;-59
2022/02/04 04:23:42;;;;;;;10.50;8.30;;;6.80;99.90;;;;;;5049158;28;20950;-60
2022/02/04 04:26:08;;;;;;;11.47;7.60;;;6.90;99.90;;;;;;5049992;28;20660;-58
2022/02/04 04:28:33;;;;;;;11.20;8.53;;;6.80;99.90;;;;;;5050958;28;20201;-60
2022/02/04 04:30:59;;;;;;;10.73;8.30;;;6.80;99.90;;;;;;5070725;28;20339;-60
2022/02/04 04:33:24;;;;;;;11.10;7.60;;;6.70;99.90;;;;;;5052864;28;20569;-58
2022/02/04 04:35:50;;;;;;;10.37;7.83;;;6.80;99.90;;;;;;5051018;28;20228;-59
2022/02/04 05:29:53;;;;;;;12.23;9.10;;;6.60;99.90;;;;;;5046336;28;20466;-56
2022/02/04 05:32:19;;;;;;;11.57;7.77;;;6.60;99.90;;;;;;5057253;28;20432;-60
2022/02/04 05:34:46;;;;;;;12.87;8.07;;;6.60;99.90;;;;;;5055379;28;20179;-60
2022/02/04 05:37:13;;;;;;;10.65;7.53;;;6.60;99.90;;;;;;5051723;28;20614;-60
2022/02/04 05:40:15;;;;;;;11.33;7.40;;;6.60;99.90;;;;;;5059040;28;20553;-60
2022/02/04 05:42:35;;;;;;;11.93;8.57;;;6.60;99.90;;;;;;5051267;28;20497;-60
2022/02/04 05:45:13;;;;;;;13.13;8.90;;;6.60;99.90;;;;;;5048420;28;20644;-60
2022/02/04 05:47:39;;;;;;;12.10;8.17;;;6.60;99.90;;;;;;5052883;28;20269;-58
2022/02/04 05:50:24;;;;;;;16.37;8.50;;;6.50;99.90;;;;;;5070942;28;20538;-59
2022/02/04 05:53:16;;;;;;;10.90;7.97;;;6.50;99.90;;;;;;5064355;28;20218;-59
2022/02/04 06:00:53;;;;;;;11.83;8.13;;;6.50;99.90;;;;;;5063666;28;20204;-60
2022/02/04 06:03:39;;;;;;;10.93;7.80;;;6.50;99.90;;;;;;5060809;28;20177;-61
2022/02/04 06:09:26;;;;;;;11.88;9.05;;;6.40;99.90;;;;;;5051815;28;20789;-61
2022/02/04 06:22:53;;;;;;;12.25;8.35;;;6.40;99.90;;;;;;5033861;28;20444;-59
2022/02/04 06:25:19;;;;;;;9.27;7.00;;;6.40;99.90;;;;;;5068268;28;20189;-59
2022/02/04 06:27:46;;;;;;;9.65;6.35;;;6.40;99.90;;;;;;5060622;28;20186;-60
2022/02/04 06:30:12;;;;;;;7.65;5.75;;;6.50;99.90;;;;;;5054061;28;20228;-61
2022/02/04 06:32:38;;;;;;;7.40;5.45;;;6.50;99.90;;;;;;5049862;28;20182;-60
2022/02/04 06:35:09;;;;;;;6.63;4.63;;;6.50;99.90;;;;;;5061894;28;20251;-60
2022/02/04 06:37:35;;;;;;;6.50;5.35;;;6.60;99.90;;;;;;5061678;28;20645;-60
2022/02/04 06:40:03;;;;;;;6.15;4.47;;;6.60;99.90;;;;;;5062729;28;20186;-60
2022/02/04 06:42:29;;;;;;;5.82;4.45;;;6.60;99.90;;;;;;5070404;28;20261;-61
2022/02/04 06:44:56;;;;;;;5.03;4.00;;;6.60;99.90;;;;;;5049834;28;20201;-61
2022/02/04 06:47:21;;;;;;;5.07;4.30;;;6.70;99.90;;;;;;5050838;28;20425;-60
2022/02/04 06:49:47;;;;;;;4.37;3.80;;;6.70;99.90;;;;;;5049686;28;20293;-62
2022/02/04 06:52:14;;;;;;;4.37;3.60;;;6.70;99.90;;;;;;5045229;28;20245;-60
2022/02/04 06:54:41;;;;;;;4.65;3.53;;;6.80;99.90;;;;;;5047152;28;20447;-60
2022/02/04 06:57:07;;;;;;;5.95;3.80;;;6.80;99.90;;;;;;5052877;28;20632;-59
2022/02/04 06:59:34;;;;;;;4.63;3.60;;;6.80;99.90;;;;;;5051914;28;20178;-60
2022/02/04 07:02:00;;;;;;;3.80;2.92;;;6.80;99.90;;;;;;5046850;28;20534;-60
2022/02/04 07:04:30;;;;;;;3.70;3.30;;;6.80;99.90;;;;;;5049467;28;20182;-60
2022/02/04 07:06:58;;;;;;;5.30;3.70;;;6.80;99.90;;;;;;5053104;28;20181;-60
2022/02/04 07:12:14;;;;;;;6.27;3.33;;;6.80;99.90;;;;;;5050114;28;20927;-60
2022/02/04 07:17:22;;;;;;;3.97;3.37;;;6.90;99.90;;;;;;5049507;28;20197;-60
2022/02/04 07:19:48;;;;;;;4.20;3.40;;;6.90;99.90;;;;;;5048436;28;20420;-62
2022/02/04 07:22:15;;;;;;;4.60;3.37;;;6.90;99.90;;;;;;5049660;28;20437;-61
2022/02/04 07:24:40;;;;;;;6.47;4.20;;;7.00;99.90;;;;;;5051450;28;20424;-60
2022/02/04 07:27:06;;;;;;;5.80;4.40;;;7.00;99.90;;;;;;5048839;28;20938;-61
2022/02/04 07:29:32;;;;;;;5.00;3.80;;;7.10;99.90;;;;;;5047955;28;20309;-58
2022/02/04 07:32:02;;;;;;;8.07;5.57;;;7.10;99.90;;;;;;5046792;28;20424;-61
2022/02/04 07:34:47;;;;;;;5.90;4.63;;;7.20;99.90;;;;;;5051457;28;20424;-60
2022/02/04 07:42:42;;;;;;;4.30;3.40;;;7.30;99.90;;;;;;5046592;28;20448;-60
2022/02/04 07:45:08;;;;;;;3.43;3.00;;;7.40;99.90;;;;;;5049610;28;20883;-60
2022/02/04 07:47:33;;;;;;;3.70;3.07;;;7.40;99.90;;;;;;5045671;28;20649;-60
2022/02/04 07:49:59;;;;;;;4.87;3.30;;;7.40;99.90;;;;;;5055788;28;20463;-60
2022/02/04 07:52:25;;;;;;;4.20;3.60;;;7.40;99.90;;;;;;5052213;28;21040;-55
2022/02/04 07:54:50;;;;;;;4.07;3.27;;;7.50;99.90;;;;;;5069502;28;20178;-55
2022/02/04 07:57:16;;;;;;;4.57;3.30;;;7.50;99.90;;;;;;5044748;28;20677;-52
2022/02/04 07:59:42;;;;;;;4.27;3.40;;;7.60;99.90;;;;;;5051062;28;20200;-56
2022/02/04 08:02:08;;;;;;;4.17;3.57;;;7.60;99.90;;;;;;5053273;28;20190;-60
2022/02/04 08:04:36;;;;;;;5.53;3.70;;;7.40;99.90;;;;;;5055342;28;20451;-57
2022/02/04 08:07:07;;;;;;;4.43;3.10;;;7.50;99.90;;;;;;5055091;28;20197;-57
2022/02/04 08:09:45;;;;;;;3.90;3.27;;;7.50;99.90;;;;;;5053991;28;20475;-52
2022/02/04 08:25:41;;;;;;;4.17;3.60;;;7.70;99.90;;;;;;5058531;28;20450;-54
2022/02/04 08:28:34;;;;;;;3.30;2.90;;;7.70;99.90;;;;;;5054541;28;21243;-54
2022/02/04 08:36:26;;;;;;;4.73;3.80;;;7.80;99.90;;;;;;5061958;28;20416;-52
2022/02/04 08:52:51;;;;;;;4.40;3.30;;;7.80;99.90;;;;;;5049618;28;20416;-53
2022/02/04 08:55:05;;;;;;;3.87;3.23;;;7.80;99.90;;;;;;5044908;28;20421;-52
2022/02/04 08:58:00;;;;;;;3.73;2.90;;;7.80;99.90;;;;;;5050833;28;20433;-54
2022/02/04 09:00:33;;;;;;;4.20;3.53;;;7.90;99.90;;;;;;5048957;28;21029;-56
2022/02/04 09:03:03;;;;;;;3.97;3.27;;;8.00;99.90;;;;;;5041083;28;20527;-54
2022/02/04 09:05:40;;;;;;;4.30;3.20;;;8.00;99.90;;;;;;5047997;28;20417;-56
2022/02/04 09:08:19;;;;;;;3.77;3.37;;;8.10;99.90;;;;;;5047128;28;20424;-56
2022/02/04 09:10:47;;;;;;;3.87;3.47;;;8.10;99.90;;;;;;5046675;28;20988;-57
2022/02/04 09:18:52;;;;;;;3.50;3.10;;;8.20;99.90;;;;;;5059335;28;20424;-56
2022/02/04 09:21:36;;;;;;;4.30;3.57;;;8.20;99.90;;;;;;5061237;28;20562;-56
2022/02/04 09:24:02;;;;;;;4.13;3.70;;;8.20;99.90;;;;;;5051942;28;20444;-55
2022/02/04 09:26:28;;;;;;;5.43;3.37;;;8.30;99.90;;;;;;5049887;28;20443;-56
2022/02/04 09:28:53;;;;;;;3.90;3.30;;;8.40;99.90;;;;;;5043400;28;20194;-54
2022/02/04 09:31:19;;;;;;;4.20;3.67;;;8.50;99.90;;;;;;5050048;28;20557;-56
2022/02/04 09:33:44;;;;;;;4.10;3.53;;;8.30;99.90;;;;;;5068194;28;20255;-54
2022/02/04 09:36:10;;;;;;;4.83;3.63;;;8.30;99.90;;;;;;5058645;28;20179;-57
2022/02/04 09:38:36;;;;;;;5.90;4.13;;;8.40;99.90;;;;;;5054969;28;20170;-55
2022/02/04 09:41:01;;;;;;;5.50;3.77;;;8.40;99.90;;;;;;5061079;28;20174;-53
2022/02/04 09:43:28;;;;;;;5.63;3.23;;;8.50;99.90;;;;;;5068593;28;20437;-52
2022/02/04 09:45:54;;;;;;;4.10;2.90;;;8.60;99.90;;;;;;5068559;28;20209;-55
2022/02/04 09:48:20;;;;;;;6.00;4.10;;;8.60;99.90;;;;;;5061820;28;20509;-55
2022/02/04 09:50:49;;;;;;;4.73;3.73;;;8.60;99.90;;;;;;5052092;28;20202;-61
2022/02/04 10:18:26;;;;;;;3.87;3.50;;;8.30;99.90;;;;;;5046816;28;20466;-52
2022/02/04 10:20:52;;;;;;;3.90;3.40;;;8.30;99.90;;;;;;5049045;28;20408;-54
2022/02/04 10:23:18;;;;;;;3.53;3.20;;;8.40;99.90;;;;;;5046128;28;20443;-59
2022/02/04 10:25:44;;;;;;;4.70;3.40;;;8.40;99.90;;;;;;5049734;28;20440;-56
2022/02/04 10:28:23;;;;;;;3.93;3.43;;;8.40;99.90;;;;;;5051317;28;20473;-55
2022/02/04 10:31:20;;;;;;;3.13;2.83;;;8.60;99.90;;;;;;5048063;28;20197;-60
2022/02/04 10:34:03;;;;;;;4.30;3.77;;;8.70;99.90;;;;;;5046552;28;20421;-56
2022/02/04 10:37:04;;;;;;;3.80;3.40;;;8.80;99.90;;;;;;5047970;28;20411;-52
2022/02/04 11:04:21;;;;;;;2.70;2.50;;;9.10;99.90;;;;;;5057425;28;20428;-54
2022/02/04 11:07:17;;;;;;;3.60;3.30;;;9.00;99.90;;;;;;5062475;28;20452;-56
2022/02/04 11:34:39;;;;;;;2.90;2.70;;;10.10;99.80;;;;;;5053889;28;20413;-54
2022/02/04 11:43:44;;;;;;;2.70;2.50;;;9.80;99.90;;;;;;5066832;28;20460;-54
2022/02/04 11:56:56;;;;;;;3.00;2.70;;;9.90;99.90;;;;;;5052339;28;20952;-54
2022/02/04 11:59:43;;;;;;;2.90;2.60;;;10.20;99.90;;;;;;5052934;28;20429;-54
2022/02/04 12:02:24;;;;;;;2.70;2.50;;;10.50;99.70;;;;;;5054877;28;20543;-53
2022/02/04 12:05:05;;;;;;;2.73;2.53;;;10.70;98.60;;;;;;5048376;28;20416;-54
2022/02/04 12:08:17;;;;;;;2.77;2.57;;;10.70;97.10;;;;;;5050496;28;20400;-56
2022/02/04 12:10:48;;;;;;;2.70;2.50;;;10.50;98.20;;;;;;5044134;28;20529;-58
2022/02/04 12:13:17;;;;;;;2.60;2.40;;;10.40;98.80;;;;;;5049234;28;20425;-54
2022/02/04 12:15:57;;;;;;;2.70;2.50;;;10.30;98.90;;;;;;5052661;28;20522;-54
2022/02/04 12:18:45;;;;;;;2.87;2.67;;;10.20;99.70;;;;;;5046943;28;20435;-60
2022/02/04 12:21:17;;;;;;;3.13;2.83;;;10.00;98.70;;;;;;5050440;28;20435;-53
2022/02/04 12:23:46;;;;;;;2.63;2.43;;;10.00;99.70;;;;;;5049365;28;20732;-56
2022/02/04 12:26:33;;;;;;;2.60;2.37;;;10.00;97.70;;;;;;5058369;28;20440;-60
2022/02/04 12:29:06;;;;;;;2.60;2.40;;;9.90;98.40;;;;;;5047186;28;20467;-54
2022/02/04 12:31:36;;;;;;;2.70;2.50;;;10.10;98.80;;;;;;5049831;28;20462;-54
2022/02/04 12:34:01;;;;;;;2.40;2.27;;;10.00;99.00;;;;;;5051618;28;20522;-53
2022/02/04 12:36:32;;;;;;;2.40;2.30;;;9.90;99.60;;;;;;5050682;28;20911;-51
2022/02/04 12:39:02;;;;;;;2.40;2.20;;;10.00;98.90;;;;;;5063143;28;20186;-55
2022/02/04 12:41:31;;;;;;;2.40;2.20;;;10.00;97.80;;;;;;5058681;28;20773;-50
2022/02/04 12:44:03;;;;;;;2.90;2.70;;;10.00;99.10;;;;;;5051630;28;20466;-51
2022/02/04 12:46:30;;;;;;;4.60;3.40;;;9.90;99.00;;;;;;5050086;28;20504;-56
2022/02/04 12:49:00;;;;;;;3.03;2.50;;;9.80;99.80;;;;;;5051559;28;20425;-56
2022/02/04 12:51:37;;;;;;;2.90;2.70;;;9.90;99.50;;;;;;5050662;28;20460;-55
2022/02/04 12:54:03;;;;;;;2.40;2.20;;;9.90;99.50;;;;;;5048374;28;20551;-56
2022/02/04 12:56:36;;;;;;;2.90;2.70;;;9.80;99.20;;;;;;5050281;28;20428;-54
2022/02/04 13:02:26;;;;;;;2.03;1.93;;;9.70;99.80;;;;;;5051148;28;20763;-55
2022/02/04 13:07:50;;;;;;;2.30;2.20;;;9.70;99.40;;;;;;5049059;28;20486;-53
2022/02/04 13:10:17;;;;;;;2.40;2.30;;;9.60;99.80;;;;;;5049935;28;20788;-56
2022/02/04 13:12:48;;;;;;;2.70;2.50;;;9.50;99.90;;;;;;5051111;28;20922;-56
2022/02/04 13:15:14;;;;;;;2.33;2.13;;;9.40;99.90;;;;;;5051630;28;20433;-54
2022/02/04 13:17:40;;;;;;;2.40;2.30;;;9.60;99.90;;;;;;5050632;28;20443;-54
2022/02/04 13:20:06;;;;;;;3.50;2.90;;;9.50;99.90;;;;;;5049894;28;20285;-55
2022/02/04 13:22:32;;;;;;;2.70;2.60;;;9.50;99.90;;;;;;5049330;28;20656;-54
2022/02/04 13:25:20;;;;;;;2.50;2.30;;;9.70;99.90;;;;;;5049926;28;21126;-55
2022/02/04 13:28:05;;;;;;;2.23;2.13;;;9.80;99.90;;;;;;5048109;28;20494;-55
2022/02/04 13:30:33;;;;;;;2.17;2.07;;;9.70;99.70;;;;;;5050651;28;20452;-57
2022/02/04 13:33:00;;;;;;;2.30;2.10;;;9.70;99.70;;;;;;5049270;28;20973;-55
2022/02/04 13:35:33;;;;;;;2.40;2.10;;;9.70;99.90;;;;;;5049352;28;20444;-56
2022/02/04 13:38:14;;;;;;;2.30;2.20;;;9.90;99.90;;;;;;5047155;28;20454;-56
2022/02/04 13:41:03;;;;;;;2.30;2.20;;;10.00;98.60;;;;;;5048008;28;20439;-51
2022/02/04 13:43:38;;;;;;;1.97;1.87;;;10.00;98.40;;;;;;5048293;28;20435;-56
2022/02/04 13:46:40;;;;;;;2.20;2.10;;;10.10;98.30;;;;;;5051198;28;20802;-56
2022/02/04 13:51:28;;;;;;;2.03;1.93;;;10.00;97.90;;;;;;5047150;28;20488;-54
2022/02/04 13:54:23;;;;;;;2.50;2.30;;;9.90;98.20;;;;;;5060019;28;20683;-53
2022/02/04 13:57:07;;;;;;;1.80;1.70;;;9.80;98.80;;;;;;5068948;28;20396;-55
2022/02/04 13:59:46;;;;;;;2.00;1.90;;;9.70;98.70;;;;;;5051042;28;20417;-53
2022/02/04 14:02:20;;;;;;;1.80;1.70;;;9.50;99.10;;;;;;5045837;28;20463;-52
2022/02/04 14:04:59;;;;;;;1.97;1.87;;;9.40;99.90;;;;;;5052275;28;20800;-50
2022/02/04 14:07:36;;;;;;;1.83;1.73;;;9.40;99.60;;;;;;5050573;28;20432;-54
2022/02/04 14:10:24;;;;;;;2.60;2.27;;;9.20;99.90;;;;;;5056314;28;20471;-55
2022/02/04 14:13:10;;;;;;;2.30;2.13;;;9.20;99.90;;;;;;5050950;28;20832;-53
2022/02/04 14:15:38;;;;;;;2.30;2.20;;;9.20;99.90;;;;;;5044892;28;20482;-56
2022/02/04 14:18:10;;;;;;;2.20;2.10;;;9.10;99.90;;;;;;5053248;28;20416;-57
2022/02/04 14:20:40;;;;;;;2.00;1.90;;;9.00;99.90;;;;;;5047764;28;20425;-51
2022/02/04 14:23:07;;;;;;;2.30;2.10;;;9.10;99.90;;;;;;5044554;28;20471;-57
2022/02/04 14:25:45;;;;;;;1.93;1.83;;;9.00;99.90;;;;;;5051414;28;20440;-56
2022/02/04 14:28:14;;;;;;;2.20;2.00;;;8.90;99.90;;;;;;5046627;28;20802;-52
2022/02/04 14:30:39;;;;;;;2.40;2.30;;;8.90;99.90;;;;;;5051106;28;20465;-56
2022/02/04 14:33:23;;;;;;;2.33;2.13;;;8.90;99.90;;;;;;5047042;28;20439;-62
2022/02/04 14:36:01;;;;;;;2.60;2.40;;;8.90;99.90;;;;;;5057021;28;20235;-56
2022/02/04 14:49:58;;;;;;;2.03;1.93;;;8.90;99.90;;;;;;5047615;28;20443;-56
2022/02/04 15:03:14;;;;;;;3.20;2.90;;;9.00;99.90;;;;;;5048858;28;20963;-54
2022/02/04 15:05:44;;;;;;;2.60;2.40;;;9.00;99.90;;;;;;5057520;28;20448;-57
2022/02/04 15:08:13;;;;;;;2.60;2.50;;;9.00;99.90;;;;;;5047180;28;20445;-58
2022/02/04 15:10:40;;;;;;;3.17;2.87;;;9.00;99.90;;;;;;5042343;28;20891;-54
2022/02/04 15:13:12;;;;;;;3.00;2.60;;;8.90;99.90;;;;;;5057611;28;20471;-53
2022/02/04 15:15:38;;;;;;;2.60;2.40;;;8.90;99.90;;;;;;5056734;28;20447;-57
2022/02/04 15:18:04;;;;;;;2.80;2.60;;;8.90;99.90;;;;;;5045907;28;20427;-57
2022/02/04 15:20:29;;;;;;;2.80;2.60;;;9.00;99.90;;;;;;5045987;28;20194;-58
2022/02/04 15:22:56;;;;;;;2.87;2.67;;;8.90;99.90;;;;;;5042253;28;20421;-57
2022/02/04 15:25:23;;;;;;;2.60;2.40;;;8.90;99.90;;;;;;5050362;28;20186;-54
2022/02/04 15:28:17;;;;;;;2.50;2.30;;;8.90;99.90;;;;;;5048138;28;20482;-56
2022/02/04 15:30:42;;;;;;;3.00;2.80;;;8.80;99.90;;;;;;5049256;28;20476;-54
2022/02/04 15:33:09;;;;;;;2.30;2.20;;;8.80;99.90;;;;;;5050953;28;20492;-57
2022/02/04 15:35:34;;;;;;;3.10;2.90;;;8.80;99.90;;;;;;5044787;28;20487;-56
2022/02/04 15:38:00;;;;;;;2.93;2.73;;;8.70;99.90;;;;;;5044181;28;21303;-55
2022/02/04 15:40:26;;;;;;;2.80;2.60;;;8.60;99.90;;;;;;5045209;28;20194;-56
2022/02/04 15:43:03;;;;;;;2.60;2.17;;;8.50;99.90;;;;;;5047950;28;20198;-56
2022/02/04 15:59:01;;;;;;;7.00;6.40;;;8.50;99.90;;;;;;5048888;28;20540;-53
2022/02/04 16:01:12;;;;;;;3.83;3.30;;;8.60;99.90;;;;;;5034869;28;20448;-54
2022/02/04 16:03:54;;;;;;;3.10;2.80;;;8.50;99.90;;;;;;5051391;28;20562;-52
2022/02/04 16:06:22;;;;;;;2.97;2.77;;;8.50;99.90;;;;;;5048345;28;20794;-52
2022/02/04 16:08:54;;;;;;;4.00;3.70;;;8.50;99.90;;;;;;5055923;28;20439;-56
2022/02/04 16:11:38;;;;;;;3.10;2.90;;;8.40;99.90;;;;;;5055080;28;20475;-49
2022/02/04 16:14:14;;;;;;;2.90;2.70;;;8.50;99.90;;;;;;5055210;28;20440;-52
2022/02/04 16:16:45;;;;;;;3.30;3.00;;;8.60;99.90;;;;;;5048870;28;20435;-53
2022/02/04 16:22:09;;;;;;;2.70;2.50;;;8.60;99.90;;;;;;5047810;28;20450;-52
2022/02/04 16:24:46;;;;;;;3.40;3.20;;;8.60;99.90;;;;;;5050707;28;21343;-51
2022/02/04 16:29:40;;;;;;;2.80;2.60;;;8.70;99.90;;;;;;5054631;28;20997;-52
2022/02/04 16:32:06;;;;;;;3.30;3.00;;;8.60;99.90;;;;;;5059152;28;20178;-54
2022/02/04 16:34:32;;;;;;;3.20;3.00;;;8.60;99.90;;;;;;5044418;28;21137;-55
2022/02/04 16:37:04;;;;;;;4.07;3.67;;;8.60;99.90;;;;;;5050052;28;20590;-55
2022/02/04 16:39:31;;;;;;;3.40;3.20;;;8.50;99.90;;;;;;5048275;28;20179;-54
2022/02/04 16:42:10;;;;;;;4.63;4.23;;;8.60;99.90;;;;;;5041928;28;20555;-54
2022/02/04 16:44:36;;;;;;;3.53;3.23;;;8.70;99.90;;;;;;5049493;28;20522;-53
2022/02/04 16:47:03;;;;;;;3.10;2.90;;;8.70;99.90;;;;;;5060800;28;20761;-54
2022/02/04 16:49:29;;;;;;;2.97;2.77;;;8.60;99.90;;;;;;5048755;28;20474;-54
2022/02/04 16:51:55;;;;;;;3.13;2.80;;;8.50;99.90;;;;;;5060005;28;20445;-54
2022/02/04 16:54:23;;;;;;;3.20;2.70;;;8.50;99.90;;;;;;5048398;28;20433;-53
2022/02/04 16:56:49;;;;;;;3.10;2.80;;;8.60;99.90;;;;;;5050306;28;20575;-55
2022/02/04 16:59:15;;;;;;;3.93;3.57;;;8.60;99.90;;;;;;5046662;28;20516;-56
2022/02/04 17:01:40;;;;;;;3.27;2.97;;;8.60;99.90;;;;;;5043016;28;20587;-53
2022/02/04 17:04:06;;;;;;;3.10;2.83;;;8.60;99.90;;;;;;5049774;28;20268;-55
2022/02/04 17:06:37;;;;;;;2.57;2.37;;;8.50;99.90;;;;;;5046734;28;20186;-55
2022/02/04 17:09:22;;;;;;;3.03;2.83;;;8.50;99.90;;;;;;5050586;28;20263;-57
2022/02/04 17:11:49;;;;;;;3.20;3.00;;;8.50;99.90;;;;;;5050093;28;20476;-54
2022/02/04 17:14:16;;;;;;;3.10;2.80;;;8.60;99.90;;;;;;5042085;28;20634;-56
2022/02/04 17:16:42;;;;;;;2.90;2.70;;;8.50;99.90;;;;;;5050738;28;20914;-54
2022/02/04 17:19:09;;;;;;;3.00;2.80;;;8.60;99.90;;;;;;5049292;28;20524;-55
2022/02/04 17:21:35;;;;;;;2.90;2.70;;;8.50;99.90;;;;;;5050216;28;20436;-57
2022/02/04 17:24:01;;;;;;;2.50;2.30;;;8.60;99.90;;;;;;5050923;28;20770;-57
2022/02/04 17:26:27;;;;;;;2.83;2.63;;;8.60;99.90;;;;;;5049884;28;20444;-57
2022/02/04 17:28:54;;;;;;;2.80;2.60;;;8.60;99.90;;;;;;5052170;28;20208;-53
2022/02/04 17:31:20;;;;;;;2.57;2.37;;;8.60;99.90;;;;;;5053860;28;20678;-54
2022/02/04 17:33:46;;;;;;;2.70;2.50;;;8.60;99.90;;;;;;5053120;28;20793;-54
2022/02/04 17:36:12;;;;;;;2.90;2.70;;;8.70;99.90;;;;;;5056354;28;20435;-57
2022/02/04 17:38:39;;;;;;;2.80;2.60;;;8.60;99.90;;;;;;5050040;28;20425;-56
2022/02/04 17:41:05;;;;;;;2.90;2.70;;;8.70;99.90;;;;;;5048951;28;20437;-55
2022/02/04 17:43:31;;;;;;;3.10;2.80;;;8.60;99.90;;;;;;5049078;28;20456;-56
2022/02/04 17:45:57;;;;;;;2.50;2.30;;;8.70;99.90;;;;;;5050284;28;20792;-55
2022/02/04 17:48:26;;;;;;;2.40;2.20;;;8.70;99.90;;;;;;5049808;28;20202;-55
2022/02/04 17:51:04;;;;;;;2.40;2.20;;;8.60;99.90;;;;;;5049534;28;20204;-56
2022/02/04 17:53:44;;;;;;;1.93;1.83;;;8.60;99.90;;;;;;5034112;28;20526;-56
2022/02/04 17:56:26;;;;;;;2.80;2.60;;;8.70;99.90;;;;;;5039959;28;20428;-59
2022/02/04 18:02:11;;;;;;;2.30;2.20;;;8.60;99.90;;;;;;5013476;28;20971;-60
2022/02/04 18:07:24;;;;;;;2.40;2.30;;;8.50;99.90;;;;;;5038553;28;20444;-61
2022/02/04 18:09:50;;;;;;;2.00;1.90;;;8.50;99.90;;;;;;5050715;28;20453;-61
2022/02/04 18:12:24;;;;;;;2.23;2.13;;;8.50;99.90;;;;;;5039013;28;20511;-60
2022/02/04 18:14:50;;;;;;;2.30;2.10;;;8.50;99.90;;;;;;5044643;28;20510;-60
2022/02/04 18:17:17;;;;;;;2.00;1.90;;;8.50;99.90;;;;;;5050008;28;20405;-61
2022/02/04 18:19:43;;;;;;;2.30;2.10;;;8.50;99.90;;;;;;5047827;28;20535;-61
2022/02/04 18:22:09;;;;;;;2.50;2.10;;;8.60;99.90;;;;;;5049088;28;20510;-61
2022/02/04 18:24:36;;;;;;;2.30;2.17;;;8.50;99.90;;;;;;5049372;28;20397;-61
2022/02/04 18:27:02;;;;;;;1.90;1.80;;;8.50;99.90;;;;;;5048707;28;20506;-62
2022/02/04 18:29:27;;;;;;;2.30;2.10;;;8.50;99.90;;;;;;5048651;28;20844;-62
2022/02/04 18:31:54;;;;;;;2.00;1.90;;;8.60;99.90;;;;;;5048518;28;20205;-62
2022/02/04 18:34:20;;;;;;;1.97;1.73;;;8.50;99.90;;;;;;5047930;28;20170;-62
2022/02/04 18:36:46;;;;;;;2.17;2.07;;;8.50;99.90;;;;;;5041622;28;21179;-61
2022/02/04 18:44:49;;;;;;;2.23;2.03;;;8.40;99.90;;;;;;5047834;28;20505;-62
2022/02/04 18:47:37;;;;;;;1.73;1.63;;;8.40;99.90;;;;;;5042127;28;20417;-60
2022/02/04 18:50:09;;;;;;;1.90;1.80;;;8.30;99.90;;;;;;5041721;28;20572;-61
2022/02/04 18:52:56;;;;;;;2.90;2.07;;;8.30;99.90;;;;;;5040353;28;20479;-60
2022/02/04 18:58:07;;;;;;;2.37;2.17;;;8.30;99.90;;;;;;5048565;28;20435;-61
2022/02/04 19:00:33;;;;;;;1.70;1.60;;;8.30;99.90;;;;;;5049160;28;20413;-61
2022/02/04 19:03:03;;;;;;;1.80;1.70;;;8.40;99.90;;;;;;5048522;28;20463;-61
2022/02/04 19:05:33;;;;;;;2.00;1.90;;;8.30;99.90;;;;;;5048204;28;20582;-61
2022/02/04 19:08:13;;;;;;;2.10;1.90;;;8.30;99.90;;;;;;5057629;28;20436;-61
2022/02/04 19:10:40;;;;;;;1.80;1.70;;;8.30;99.90;;;;;;5046551;28;20475;-62
2022/02/04 19:13:12;;;;;;;2.30;2.10;;;8.30;99.90;;;;;;5047777;28;20829;-62
2022/02/04 19:24:20;;;;;;;1.80;1.70;;;8.30;99.90;;;;;;5026712;28;21048;-61
2022/02/04 19:26:45;;;;;;;2.20;2.10;;;8.30;99.90;;;;;;5049776;28;20428;-59
2022/02/04 19:29:11;;;;;;;2.50;2.30;;;8.20;99.90;;;;;;5048562;28;20436;-60